Главная страница
METAR-TAF:

METAR-TAF

Аэропорты :

Оденсе, Дания

широта: 55-29N, долгота: 010-20E, высота над уровнем моря: 17 м

Текущие метеонаблюдения

Эта сводка был подготовлена 1 час и 5 минут назад, в 14:50 UTC
Ветер 7 Узел от западный
Температура 16°C
Влажность 82%
Давление 1008 hPa
Видимость 10 км и более
небольшая облачность на высоте 1500 фута
Рассеянная облачность на высоте 2300 фута

METAR: EKOD 221450Z 27007KT 9999 FEW015 BKN023 16/13 Q1008

Время: 17:55 (15:55 UTC)

Прогноз

Эта сводка был подготовлена 4 часа и 25 минут назад, в 11:30 UTC
Прогноз действительный с 22-го 11 UTC до 22-го 15 UTC
Ветер 10 Узел от западный
Видимость 10 км и более
Рассеянная облачность на высоте 500 фута
изменения
С 22-го 12 UTC до 22-го 15 UTC
Рассеянная облачность на высоте 1500 фута

TAF: EKOD 221130Z 2211/2215 28010KT 9999 BKN005 BECMG 2212/2215 BKN015

Метеонаблюдения и прогнозы для более 4000 аэропортов (сводки METAR и TAF).

Имеющиеся станции представлены на карте желтыми и красными точками.

Чтобы увидеть название станции, наведите на нее мышь.

Затем щелкните, чтобы увидеть метеонаблюдения и метеопрогнозы.

Управление картой: чтобы увеличить масштаб, щелкните зеленые кнопки с черным крестиком; чтобы уменьшить масштаб, щелкните зеленую кнопку с тире; для просмотра соседних карт щелкайте зеленые стрелки.


METAR-TAF: